Check out our new PWSWeather beta!
PWSweather.com
Personal Weather Stations
Station Observations
KVAGLENALL
West Henrico, Glen Allen, VA 23060-6503

West HenricoGlen Allen, VA 23060-6503

Lat: 37.6554, Lon: -77.5693

Elevation: 273

Station Type: Davis Vantage Pro II

www.glenallenweather.com

High Low Average
Temperature 30.3°F-0.9°C 18.6°F-7.4°C 25.1°F-3.8°C
Dew Point 23.6°F-4.7°C 13.2°F-10.4°C 19.2°F-7.1°C
Winds 4.0 mph 6.4 kmh Calm Calm 2.0 mph SE3.2 kmh SE
Wind Gusts 9.1 mph14.6 kmh -- 3.0 mph4.8 kmh
Humidity 85% 71% 78%
Pressure 30.42 in1030.1 mb 30.30 in1026.1 mb -
Precipitation 0.00 in0.0 mm - -
Hour Temp Dew Point Humidity Winds Wind Gusts Pressure Precip Precip Rate Daily Precip Total
12:30 AM 21.1°F-6.1°C 13.2°F-10.4°C 71% 1.0 mph SSW1.6 kmh SSW 2.0 mph3.2 kmh 30.38 in1028.8 mb 0.00 in0.0 mm 0.00 in0.0 mm 0.00 in0.0 mm
01:30 AM 21.9°F-5.6°C 15.5°F-9.2°C 76% 2.0 mph NNE3.2 kmh NNE 3.0 mph4.8 kmh 30.39 in1029.1 mb 0.00 in0.0 mm 0.00 in0.0 mm 0.00 in0.0 mm
02:30 AM 21.2°F-6.0°C 13.9°F-10.1°C 73% 2.0 mph NE3.2 kmh NE 2.0 mph3.2 kmh 30.39 in1029.1 mb 0.00 in0.0 mm 0.00 in0.0 mm 0.00 in0.0 mm
03:00 AM 20.8°F-6.2°C 13.8°F-10.1°C 74% Calm Calm 3.0 mph4.8 kmh 30.39 in1029.1 mb 0.00 in0.0 mm 0.00 in0.0 mm 0.00 in0.0 mm
04:00 AM 19.7°F-6.8°C 14.0°F-10.0°C 78% 4.0 mph NNE6.4 kmh NNE 5.1 mph8.2 kmh 30.40 in1029.5 mb 0.00 in0.0 mm 0.00 in0.0 mm 0.00 in0.0 mm
05:00 AM 18.7°F-7.4°C 13.6°F-10.2°C 80% 3.0 mph N4.8 kmh N 4.0 mph6.4 kmh 30.41 in1029.8 mb 0.00 in0.0 mm 0.00 in0.0 mm 0.00 in0.0 mm
06:00 AM 18.6°F-7.4°C 14.6°F-9.7°C 84% 3.0 mph NNE4.8 kmh NNE 4.0 mph6.4 kmh 30.40 in1029.5 mb 0.00 in0.0 mm 0.00 in0.0 mm 0.00 in0.0 mm
07:00 AM 19.4°F-7.0°C 15.6°F-9.1°C 85% 2.0 mph ESE3.2 kmh ESE 3.0 mph4.8 kmh 30.40 in1029.5 mb 0.00 in0.0 mm 0.00 in0.0 mm 0.00 in0.0 mm
08:00 AM 21.3°F-5.9°C 17.5°F-8.1°C 85% 2.0 mph E3.2 kmh E 3.0 mph4.8 kmh 30.39 in1029.1 mb 0.00 in0.0 mm 0.00 in0.0 mm 0.00 in0.0 mm
09:00 AM 23.6°F-4.7°C 19.2°F-7.1°C 83% 3.0 mph NE4.8 kmh NE 5.1 mph8.2 kmh 30.42 in1030.1 mb 0.00 in0.0 mm 0.00 in0.0 mm 0.00 in0.0 mm
10:00 AM 25.8°F-3.4°C 20.2°F-6.6°C 79% 2.0 mph ESE3.2 kmh ESE 4.0 mph6.4 kmh 30.41 in1029.8 mb 0.00 in0.0 mm 0.00 in0.0 mm 0.00 in0.0 mm
11:00 AM 28.0°F-2.2°C 20.8°F-6.2°C 74% Calm Calm 1.0 mph1.6 kmh 30.40 in1029.5 mb 0.00 in0.0 mm 0.00 in0.0 mm 0.00 in0.0 mm
12:00 PM 28.8°F-1.8°C 21.3°F-5.9°C 73% Calm Calm -- 30.37 in1028.4 mb 0.00 in0.0 mm 0.00 in0.0 mm 0.00 in0.0 mm
01:00 PM 29.9°F-1.2°C 21.9°F-5.6°C 72% Calm Calm 1.0 mph1.6 kmh 30.33 in1027.1 mb 0.00 in0.0 mm 0.00 in0.0 mm 0.00 in0.0 mm
02:00 PM 30.3°F-0.9°C 22.3°F-5.4°C 72% 1.0 mph S1.6 kmh S 4.0 mph6.4 kmh 30.30 in1026.1 mb 0.00 in0.0 mm 0.00 in0.0 mm 0.00 in0.0 mm
03:00 PM 29.8°F-1.2°C 23.4°F-4.8°C 77% 2.0 mph WSW3.2 kmh WSW 2.0 mph3.2 kmh 30.31 in1026.4 mb 0.00 in0.0 mm 0.00 in0.0 mm 0.00 in0.0 mm
04:00 PM 28.9°F-1.7°C 23.3°F-4.8°C 79% 1.0 mph NNW1.6 kmh NNW 4.0 mph6.4 kmh 30.32 in1026.8 mb 0.00 in0.0 mm 0.00 in0.0 mm 0.00 in0.0 mm
05:00 PM 28.5°F-1.9°C 22.9°F-5.1°C 79% Calm Calm 1.0 mph1.6 kmh 30.33 in1027.1 mb 0.01 in0.3 mm 0.00 in0.0 mm 0.01 in0.3 mm
06:00 PM 28.5°F-1.9°C 23.2°F-4.9°C 80% 2.0 mph N3.2 kmh N 4.0 mph6.4 kmh 30.34 in1027.4 mb 0.02 in0.5 mm 0.00 in0.0 mm 0.02 in0.5 mm
07:00 PM 28.5°F-1.9°C 23.2°F-4.9°C 80% Calm Calm 4.0 mph6.4 kmh 30.36 in1028.1 mb 0.00 in0.0 mm 0.00 in0.0 mm 0.02 in0.5 mm
08:00 PM 28.6°F-1.9°C 23.6°F-4.7°C 81% 2.0 mph NE3.2 kmh NE 3.0 mph4.8 kmh 30.38 in1028.8 mb 0.00 in0.0 mm 0.00 in0.0 mm 0.02 in0.5 mm
09:00 PM 27.9°F-2.3°C 22.6°F-5.2°C 80% 4.0 mph N6.4 kmh N 9.1 mph14.6 kmh 30.39 in1029.1 mb 0.00 in0.0 mm 0.00 in0.0 mm 0.02 in0.5 mm
10:00 PM 26.0°F-3.3°C 20.7°F-6.3°C 80% Calm Calm 2.0 mph3.2 kmh 30.42 in1030.1 mb 0.00 in0.0 mm 0.00 in0.0 mm 0.02 in0.5 mm
11:00 PM 25.5°F-3.6°C 20.5°F-6.4°C 81% 4.0 mph N6.4 kmh N 6.1 mph9.8 kmh 30.42 in1030.1 mb 0.00 in0.0 mm 0.00 in0.0 mm 0.02 in0.5 mm